sensor_id;sensor_type;location;lat;lon;timestamp;pressure;altitude;pressure_sealevel;temperature;humidity
11017;BME280;54687;50.800;6.772;2023-03-11T00:00:50;61139.03;;;-144.06;57.34
11017;BME280;54687;50.800;6.772;2023-03-11T00:03:19;61197.72;;;-144.06;57.42
11017;BME280;54687;50.800;6.772;2023-03-11T00:05:49;61176.75;;;-144.06;57.15
11017;BME280;54687;50.800;6.772;2023-03-11T00:08:19;61210.31;;;-144.06;57.36
11017;BME280;54687;50.800;6.772;2023-03-11T00:10:49;61227.06;;;-144.06;57.42
11017;BME280;54687;50.800;6.772;2023-03-11T00:13:16;61195.63;;;-144.06;57.79
11017;BME280;54687;50.800;6.772;2023-03-11T00:15:45;61201.91;;;-144.06;57.42
11017;BME280;54687;50.800;6.772;2023-03-11T00:18:12;61168.38;;;-144.06;57.42
11017;BME280;54687;50.800;6.772;2023-03-11T00:20:42;61187.25;;;-144.06;57.78
11017;BME280;54687;50.800;6.772;2023-03-11T00:23:12;61185.16;;;-144.06;57.42
11017;BME280;54687;50.800;6.772;2023-03-11T00:25:39;61191.44;;;-144.06;57.98
11017;BME280;54687;50.800;6.772;2023-03-11T00:28:06;61204.00;;;-144.06;57.54
11017;BME280;54687;50.800;6.772;2023-03-11T00:30:35;61185.16;;;-144.06;57.27
11017;BME280;54687;50.800;6.772;2023-03-11T00:33:02;61185.16;;;-144.06;57.40
11017;BME280;54687;50.800;6.772;2023-03-11T00:35:30;61189.34;;;-144.06;57.78
11017;BME280;54687;50.800;6.772;2023-03-11T00:38:00;61151.59;;;-144.06;57.78
11017;BME280;54687;50.800;6.772;2023-03-11T00:40:29;61189.34;;;-144.06;57.48
11017;BME280;54687;50.800;6.772;2023-03-11T00:42:56;61189.34;;;-144.06;57.91
11017;BME280;54687;50.800;6.772;2023-03-11T00:45:25;61197.72;;;-144.06;57.35
11017;BME280;54687;50.800;6.772;2023-03-11T00:47:53;61145.31;;;-144.06;57.39
11017;BME280;54687;50.800;6.772;2023-03-11T00:50:22;61214.50;;;-144.06;57.64
11017;BME280;54687;50.800;6.772;2023-03-11T00:52:50;61160.00;;;-144.06;57.75
11017;BME280;54687;50.800;6.772;2023-03-11T00:55:20;61145.31;;;-144.06;57.86
11017;BME280;54687;50.800;6.772;2023-03-11T00:57:50;61170.47;;;-144.06;57.74
11017;BME280;54687;50.800;6.772;2023-03-11T01:00:18;61185.16;;;-144.06;57.56
11017;BME280;54687;50.800;6.772;2023-03-11T01:02:45;61195.63;;;-144.06;56.95
11017;BME280;54687;50.800;6.772;2023-03-11T01:05:12;61168.38;;;-144.06;56.58
11017;BME280;54687;50.800;6.772;2023-03-11T01:07:41;61180.97;;;-144.06;56.64
11017;BME280;54687;50.800;6.772;2023-03-11T01:10:09;61168.38;;;-144.06;56.68
11017;BME280;54687;50.800;6.772;2023-03-11T01:12:40;61183.06;;;-144.06;56.70
11017;BME280;54687;50.800;6.772;2023-03-11T01:15:09;61206.09;;;-144.06;56.07
11017;BME280;54687;50.800;6.772;2023-03-11T01:17:40;61206.09;;;-144.06;56.08
11017;BME280;54687;50.800;6.772;2023-03-11T01:20:10;61174.66;;;-144.06;55.86
11017;BME280;54687;50.800;6.772;2023-03-11T01:22:37;61214.50;;;-144.06;55.94
11017;BME280;54687;50.800;6.772;2023-03-11T01:25:05;61172.56;;;-144.06;55.92
11017;BME280;54687;50.800;6.772;2023-03-11T01:27:32;61160.00;;;-144.06;56.02
11017;BME280;54687;50.800;6.772;2023-03-11T01:30:00;61201.91;;;-144.06;55.53
11017;BME280;54687;50.800;6.772;2023-03-11T01:32:27;61210.31;;;-144.06;56.21
11017;BME280;54687;50.800;6.772;2023-03-11T01:34:53;61206.09;;;-144.06;56.31
11017;BME280;54687;50.800;6.772;2023-03-11T01:37:22;61189.34;;;-144.06;56.47
11017;BME280;54687;50.800;6.772;2023-03-11T01:39:48;61210.31;;;-144.06;56.43
11017;BME280;54687;50.800;6.772;2023-03-11T01:42:17;61172.56;;;-144.06;55.72
11017;BME280;54687;50.800;6.772;2023-03-11T01:44:44;61176.75;;;-144.06;56.29
11017;BME280;54687;50.800;6.772;2023-03-11T01:47:36;61222.88;;;-144.06;56.42
11017;BME280;54687;50.800;6.772;2023-03-11T01:50:05;61222.88;;;-144.06;56.48
11017;BME280;54687;50.800;6.772;2023-03-11T01:52:36;61185.16;;;-144.06;56.04
11017;BME280;54687;50.800;6.772;2023-03-11T01:55:04;61193.53;;;-144.06;56.59
11017;BME280;54687;50.800;6.772;2023-03-11T01:57:33;61189.34;;;-144.06;56.26
11017;BME280;54687;50.800;6.772;2023-03-11T02:00:01;61149.50;;;-144.06;56.13
11017;BME280;54687;50.800;6.772;2023-03-11T02:02:34;61172.56;;;-144.06;56.24
11017;BME280;54687;50.800;6.772;2023-03-11T02:05:03;61168.38;;;-144.06;56.17
11017;BME280;54687;50.800;6.772;2023-03-11T02:07:30;61168.38;;;-144.06;56.04
11017;BME280;54687;50.800;6.772;2023-03-11T02:09:56;61176.75;;;-144.06;56.53
11017;BME280;54687;50.800;6.772;2023-03-11T02:12:24;61189.34;;;-144.06;55.35
11017;BME280;54687;50.800;6.772;2023-03-11T02:14:52;61195.63;;;-144.06;55.61
11017;BME280;54687;50.800;6.772;2023-03-11T02:17:19;61164.19;;;-144.06;55.65
11017;BME280;54687;50.800;6.772;2023-03-11T02:20:00;61164.19;;;-144.06;55.51
11017;BME280;54687;50.800;6.772;2023-03-11T02:22:29;61208.22;;;-144.06;55.63
11017;BME280;54687;50.800;6.772;2023-03-11T02:25:03;61168.38;;;-144.06;55.18
11017;BME280;54687;50.800;6.772;2023-03-11T02:27:37;61176.75;;;-144.06;55.06
11017;BME280;54687;50.800;6.772;2023-03-11T02:30:08;61160.00;;;-144.06;55.44
11017;BME280;54687;50.800;6.772;2023-03-11T02:32:35;61180.97;;;-144.06;55.14
11017;BME280;54687;50.800;6.772;2023-03-11T02:35:03;61139.03;;;-144.06;54.85
11017;BME280;54687;50.800;6.772;2023-03-11T02:37:30;61160.00;;;-144.06;54.81
11017;BME280;54687;50.800;6.772;2023-03-11T02:40:27;61197.72;;;-144.06;54.87
11017;BME280;54687;50.800;6.772;2023-03-11T02:42:59;61145.31;;;-144.06;55.07
11017;BME280;54687;50.800;6.772;2023-03-11T02:45:27;61183.06;;;-144.06;54.74
11017;BME280;54687;50.800;6.772;2023-03-11T02:47:56;61206.09;;;-144.06;54.70
11017;BME280;54687;50.800;6.772;2023-03-11T02:50:24;61185.16;;;-144.06;54.67
11017;BME280;54687;50.800;6.772;2023-03-11T02:52:52;61160.00;;;-144.06;55.04
11017;BME280;54687;50.800;6.772;2023-03-11T02:55:19;61147.41;;;-144.06;54.57
11017;BME280;54687;50.800;6.772;2023-03-11T02:57:46;61145.31;;;-144.06;55.04
11017;BME280;54687;50.800;6.772;2023-03-11T03:00:16;61197.72;;;-144.06;55.19
11017;BME280;54687;50.800;6.772;2023-03-11T03:02:44;61185.16;;;-144.06;55.18
11017;BME280;54687;50.800;6.772;2023-03-11T03:05:11;61193.53;;;-144.06;55.58
11017;BME280;54687;50.800;6.772;2023-03-11T03:07:38;61176.75;;;-144.06;55.96
11017;BME280;54687;50.800;6.772;2023-03-11T03:10:05;61157.91;;;-144.06;55.81
11017;BME280;54687;50.800;6.772;2023-03-11T03:12:33;61189.34;;;-144.06;55.38
11017;BME280;54687;50.800;6.772;2023-03-11T03:14:59;61222.88;;;-144.06;55.75
11017;BME280;54687;50.800;6.772;2023-03-11T03:17:27;61193.53;;;-144.06;55.99
11017;BME280;54687;50.800;6.772;2023-03-11T03:19:54;61176.75;;;-144.06;55.84
11017;BME280;54687;50.800;6.772;2023-03-11T03:22:20;61164.19;;;-144.06;55.96
11017;BME280;54687;50.800;6.772;2023-03-11T03:24:49;61222.88;;;-144.06;56.26
11017;BME280;54687;50.800;6.772;2023-03-11T03:30:32;61180.97;;;-144.06;56.50
11017;BME280;54687;50.800;6.772;2023-03-11T03:33:00;61172.56;;;-144.06;56.95
11017;BME280;54687;50.800;6.772;2023-03-11T03:35:27;61193.53;;;-144.06;56.63
11017;BME280;54687;50.800;6.772;2023-03-11T03:37:53;61172.56;;;-144.06;57.23
11017;BME280;54687;50.800;6.772;2023-03-11T03:40:20;61216.59;;;-144.06;57.09
11017;BME280;54687;50.800;6.772;2023-03-11T03:42:46;61195.63;;;-144.06;57.27
11017;BME280;54687;50.800;6.772;2023-03-11T03:45:13;61210.31;;;-144.06;57.55
11017;BME280;54687;50.800;6.772;2023-03-11T03:47:40;61172.56;;;-144.06;57.62
11017;BME280;54687;50.800;6.772;2023-03-11T03:50:09;61206.09;;;-144.06;57.12
11017;BME280;54687;50.800;6.772;2023-03-11T03:52:37;61208.22;;;-144.06;57.56
11017;BME280;54687;50.800;6.772;2023-03-11T03:55:05;61212.41;;;-144.06;57.90
11017;BME280;54687;50.800;6.772;2023-03-11T03:57:32;61172.56;;;-144.06;58.05
11017;BME280;54687;50.800;6.772;2023-03-11T03:59:58;61180.97;;;-144.06;58.27
11017;BME280;54687;50.800;6.772;2023-03-11T04:02:25;61185.16;;;-144.06;58.22
11017;BME280;54687;50.800;6.772;2023-03-11T04:04:51;61227.06;;;-144.06;58.51
11017;BME280;54687;50.800;6.772;2023-03-11T04:07:19;61206.09;;;-144.06;58.75
11017;BME280;54687;50.800;6.772;2023-03-11T04:09:46;61214.50;;;-144.06;58.90
11017;BME280;54687;50.800;6.772;2023-03-11T04:12:13;61187.25;;;-144.06;59.28
11017;BME280;54687;50.800;6.772;2023-03-11T04:14:42;61191.44;;;-144.06;59.21
11017;BME280;54687;50.800;6.772;2023-03-11T04:17:09;61185.16;;;-144.06;59.60
11017;BME280;54687;50.800;6.772;2023-03-11T04:19:36;61197.72;;;-144.06;59.52
11017;BME280;54687;50.800;6.772;2023-03-11T04:22:03;61229.16;;;-144.06;59.34
11017;BME280;54687;50.800;6.772;2023-03-11T04:24:31;61168.38;;;-144.06;59.38
11017;BME280;54687;50.800;6.772;2023-03-11T04:26:57;61214.50;;;-144.06;59.35
11017;BME280;54687;50.800;6.772;2023-03-11T04:29:24;61178.84;;;-144.06;59.35
11017;BME280;54687;50.800;6.772;2023-03-11T04:31:50;61201.91;;;-144.06;59.74
11017;BME280;54687;50.800;6.772;2023-03-11T04:34:17;61174.66;;;-144.06;59.48
11017;BME280;54687;50.800;6.772;2023-03-11T04:36:43;61227.06;;;-144.06;59.48
11017;BME280;54687;50.800;6.772;2023-03-11T04:39:10;61227.06;;;-144.06;59.26
11017;BME280;54687;50.800;6.772;2023-03-11T04:41:38;61176.75;;;-144.06;59.43
11017;BME280;54687;50.800;6.772;2023-03-11T04:44:05;61216.59;;;-144.06;59.50
11017;BME280;54687;50.800;6.772;2023-03-11T04:46:31;61172.56;;;-144.06;59.98
11017;BME280;54687;50.800;6.772;2023-03-11T04:48:58;61206.09;;;-144.06;59.73
11017;BME280;54687;50.800;6.772;2023-03-11T04:51:24;61185.16;;;-144.06;59.91
11017;BME280;54687;50.800;6.772;2023-03-11T04:53:51;61176.75;;;-144.06;59.79
11017;BME280;54687;50.800;6.772;2023-03-11T04:56:17;61210.31;;;-144.06;59.32
11017;BME280;54687;50.800;6.772;2023-03-11T04:58:45;61218.69;;;-144.06;59.28
11017;BME280;54687;50.800;6.772;2023-03-11T05:01:12;61210.31;;;-144.06;59.00
11017;BME280;54687;50.800;6.772;2023-03-11T05:03:39;61176.75;;;-144.06;59.15
11017;BME280;54687;50.800;6.772;2023-03-11T05:06:06;61206.09;;;-144.06;59.03
11017;BME280;54687;50.800;6.772;2023-03-11T05:08:32;61195.63;;;-144.06;59.44
11017;BME280;54687;50.800;6.772;2023-03-11T05:10:59;61189.34;;;-144.06;59.59
11017;BME280;54687;50.800;6.772;2023-03-11T05:13:25;61193.53;;;-144.06;59.63
11017;BME280;54687;50.800;6.772;2023-03-11T05:15:53;61201.91;;;-144.06;59.82
11017;BME280;54687;50.800;6.772;2023-03-11T05:18:20;61214.50;;;-144.06;59.78
11017;BME280;54687;50.800;6.772;2023-03-11T05:20:46;61176.75;;;-144.06;59.82
11017;BME280;54687;50.800;6.772;2023-03-11T05:23:13;61172.56;;;-144.06;60.06
11017;BME280;54687;50.800;6.772;2023-03-11T05:25:39;61189.34;;;-144.06;60.14
11017;BME280;54687;50.800;6.772;2023-03-11T05:28:06;61206.09;;;-144.06;59.96
11017;BME280;54687;50.800;6.772;2023-03-11T05:30:33;61189.34;;;-144.06;60.04
11017;BME280;54687;50.800;6.772;2023-03-11T05:33:00;61180.97;;;-144.06;59.83
11017;BME280;54687;50.800;6.772;2023-03-11T05:35:27;61193.53;;;-144.06;59.56
11017;BME280;54687;50.800;6.772;2023-03-11T05:37:54;61168.38;;;-144.06;59.35
11017;BME280;54687;50.800;6.772;2023-03-11T05:40:21;61218.69;;;-144.06;59.36
11017;BME280;54687;50.800;6.772;2023-03-11T05:42:47;61201.91;;;-144.06;59.13
11017;BME280;54687;50.800;6.772;2023-03-11T05:45:14;61197.72;;;-144.06;58.93
11017;BME280;54687;50.800;6.772;2023-03-11T05:47:41;61197.72;;;-144.06;59.06
11017;BME280;54687;50.800;6.772;2023-03-11T05:50:10;61214.50;;;-144.06;59.47
11017;BME280;54687;50.800;6.772;2023-03-11T05:52:37;61185.16;;;-144.06;59.47
11017;BME280;54687;50.800;6.772;2023-03-11T05:55:04;61185.16;;;-144.06;59.74
11017;BME280;54687;50.800;6.772;2023-03-11T05:57:31;61214.50;;;-144.06;59.77
11017;BME280;54687;50.800;6.772;2023-03-11T05:59:58;61176.75;;;-144.06;59.34
11017;BME280;54687;50.800;6.772;2023-03-11T06:02:24;61229.16;;;-144.06;58.89
11017;BME280;54687;50.800;6.772;2023-03-11T06:04:51;61235.47;;;-144.06;58.54
11017;BME280;54687;50.800;6.772;2023-03-11T06:07:19;61212.41;;;-144.06;58.88
11017;BME280;54687;50.800;6.772;2023-03-11T06:09:45;61172.56;;;-144.06;58.43
11017;BME280;54687;50.800;6.772;2023-03-11T06:12:12;61218.69;;;-144.06;59.11
11017;BME280;54687;50.800;6.772;2023-03-11T06:14:38;61201.91;;;-144.06;58.60
11017;BME280;54687;50.800;6.772;2023-03-11T06:17:05;61218.69;;;-144.06;58.58
11017;BME280;54687;50.800;6.772;2023-03-11T06:19:32;61197.72;;;-144.06;58.79
11017;BME280;54687;50.800;6.772;2023-03-11T06:21:59;61176.75;;;-144.06;58.08
11017;BME280;54687;50.800;6.772;2023-03-11T06:24:27;61183.06;;;-144.06;58.15
11017;BME280;54687;50.800;6.772;2023-03-11T06:26:53;61185.16;;;-144.06;58.25
11017;BME280;54687;50.800;6.772;2023-03-11T06:29:20;61201.91;;;-144.06;58.00
11017;BME280;54687;50.800;6.772;2023-03-11T06:31:49;61180.97;;;-144.06;57.69
11017;BME280;54687;50.800;6.772;2023-03-11T06:34:15;61210.31;;;-144.06;57.74
11017;BME280;54687;50.800;6.772;2023-03-11T06:36:42;61160.00;;;-144.06;57.70
11017;BME280;54687;50.800;6.772;2023-03-11T06:39:11;61180.97;;;-144.06;57.53
11017;BME280;54687;50.800;6.772;2023-03-11T06:41:40;61212.41;;;-144.06;57.12
11017;BME280;54687;50.800;6.772;2023-03-11T06:44:07;61187.25;;;-144.06;56.62
11017;BME280;54687;50.800;6.772;2023-03-11T06:46:34;61187.25;;;-144.06;57.25
11017;BME280;54687;50.800;6.772;2023-03-11T06:49:01;61189.34;;;-144.06;56.85
11017;BME280;54687;50.800;6.772;2023-03-11T06:51:28;61210.31;;;-144.06;56.81
11017;BME280;54687;50.800;6.772;2023-03-11T06:53:55;61185.16;;;-144.06;56.50
11017;BME280;54687;50.800;6.772;2023-03-11T06:56:22;61168.38;;;-144.06;56.73
11017;BME280;54687;50.800;6.772;2023-03-11T06:58:50;61239.66;;;-144.06;56.76
11017;BME280;54687;50.800;6.772;2023-03-11T07:01:19;61197.72;;;-144.06;56.91
11017;BME280;54687;50.800;6.772;2023-03-11T07:03:47;61201.91;;;-144.06;56.71
11017;BME280;54687;50.800;6.772;2023-03-11T07:06:15;61143.22;;;-144.06;56.62
11017;BME280;54687;50.800;6.772;2023-03-11T07:08:42;61151.59;;;-144.06;56.86
11017;BME280;54687;50.800;6.772;2023-03-11T07:11:12;61189.34;;;-144.06;56.75
11017;BME280;54687;50.800;6.772;2023-03-11T07:13:39;61201.91;;;-144.06;56.29
11017;BME280;54687;50.800;6.772;2023-03-11T07:16:09;61176.75;;;-144.06;55.76
11017;BME280;54687;50.800;6.772;2023-03-11T07:18:37;61214.50;;;-144.06;56.29
11017;BME280;54687;50.800;6.772;2023-03-11T07:21:06;61170.47;;;-144.06;55.50
11017;BME280;54687;50.800;6.772;2023-03-11T07:23:34;61185.16;;;-144.06;55.47
11017;BME280;54687;50.800;6.772;2023-03-11T07:26:03;61208.22;;;-144.06;56.04
11017;BME280;54687;50.800;6.772;2023-03-11T07:28:30;61222.88;;;-144.06;56.18
11017;BME280;54687;50.800;6.772;2023-03-11T07:30:56;61193.53;;;-144.06;55.67
11017;BME280;54687;50.800;6.772;2023-03-11T07:33:24;61157.91;;;-144.06;56.58
11017;BME280;54687;50.800;6.772;2023-03-11T07:35:51;61197.72;;;-144.06;56.48
11017;BME280;54687;50.800;6.772;2023-03-11T07:38:17;61160.00;;;-144.06;56.95
11017;BME280;54687;50.800;6.772;2023-03-11T07:40:45;61197.72;;;-144.06;57.05
11017;BME280;54687;50.800;6.772;2023-03-11T07:43:11;61193.53;;;-144.06;57.22
11017;BME280;54687;50.800;6.772;2023-03-11T07:45:38;61187.25;;;-144.06;57.54
11017;BME280;54687;50.800;6.772;2023-03-11T07:48:05;61206.09;;;-144.06;57.00
11017;BME280;54687;50.800;6.772;2023-03-11T07:50:33;61180.97;;;-144.06;56.73
11017;BME280;54687;50.800;6.772;2023-03-11T07:52:59;61126.44;;;-144.06;57.42
11017;BME280;54687;50.800;6.772;2023-03-11T07:55:26;61218.69;;;-144.06;56.70
11017;BME280;54687;50.800;6.772;2023-03-11T07:57:52;61160.00;;;-144.06;56.52
11017;BME280;54687;50.800;6.772;2023-03-11T08:00:19;61180.97;;;-144.06;56.46
11017;BME280;54687;50.800;6.772;2023-03-11T08:02:46;61168.38;;;-144.06;56.26
11017;BME280;54687;50.800;6.772;2023-03-11T08:05:13;61201.91;;;-144.06;55.46
11017;BME280;54687;50.800;6.772;2023-03-11T08:07:41;61180.97;;;-144.06;55.10
11017;BME280;54687;50.800;6.772;2023-03-11T08:10:09;61174.66;;;-144.06;54.63
11017;BME280;54687;50.800;6.772;2023-03-11T08:12:35;61139.03;;;-144.06;54.70
11017;BME280;54687;50.800;6.772;2023-03-11T08:15:03;61193.53;;;-144.06;54.23
11017;BME280;54687;50.800;6.772;2023-03-11T08:17:29;61187.25;;;-144.06;54.30
11017;BME280;54687;50.800;6.772;2023-03-11T08:19:56;61136.94;;;-144.06;53.73
11017;BME280;54687;50.800;6.772;2023-03-11T08:22:23;61180.97;;;-144.06;53.76
11017;BME280;54687;50.800;6.772;2023-03-11T08:24:51;61185.16;;;-144.06;53.39
11017;BME280;54687;50.800;6.772;2023-03-11T08:27:19;61199.81;;;-144.06;53.25
11017;BME280;54687;50.800;6.772;2023-03-11T08:29:45;61178.84;;;-144.06;53.51
11017;BME280;54687;50.800;6.772;2023-03-11T08:32:12;61160.00;;;-144.06;52.61
11017;BME280;54687;50.800;6.772;2023-03-11T08:34:38;61151.59;;;-144.06;52.09
11017;BME280;54687;50.800;6.772;2023-03-11T08:37:05;61206.09;;;-144.06;51.90
11017;BME280;54687;50.800;6.772;2023-03-11T08:39:32;61176.75;;;-144.06;52.34
11017;BME280;54687;50.800;6.772;2023-03-11T08:42:00;61172.56;;;-144.06;51.94
11017;BME280;54687;50.800;6.772;2023-03-11T08:44:27;61164.19;;;-144.06;51.47
11017;BME280;54687;50.800;6.772;2023-03-11T08:46:53;61197.72;;;-144.06;50.91
11017;BME280;54687;50.800;6.772;2023-03-11T08:49:20;61183.06;;;-144.06;50.18
11017;BME280;54687;50.800;6.772;2023-03-11T08:51:47;61197.72;;;-144.06;50.16
11017;BME280;54687;50.800;6.772;2023-03-11T08:54:13;61189.34;;;-144.06;50.57
11017;BME280;54687;50.800;6.772;2023-03-11T08:56:40;61174.66;;;-144.06;50.94
11017;BME280;54687;50.800;6.772;2023-03-11T08:59:08;61147.41;;;-144.06;51.24
11017;BME280;54687;50.800;6.772;2023-03-11T09:01:34;61189.34;;;-144.06;49.05
11017;BME280;54687;50.800;6.772;2023-03-11T09:04:01;61151.59;;;-144.06;50.18
11017;BME280;54687;50.800;6.772;2023-03-11T09:06:28;61168.38;;;-144.06;49.91
11017;BME280;54687;50.800;6.772;2023-03-11T09:08:55;61193.53;;;-144.06;49.62
11017;BME280;54687;50.800;6.772;2023-03-11T09:11:22;61193.53;;;-144.06;49.36
11017;BME280;54687;50.800;6.772;2023-03-11T09:13:49;61222.88;;;-144.06;49.59
11017;BME280;54687;50.800;6.772;2023-03-11T09:16:19;61172.56;;;-144.06;50.09
11017;BME280;54687;50.800;6.772;2023-03-11T09:18:46;61139.03;;;-144.06;49.39
11017;BME280;54687;50.800;6.772;2023-03-11T09:21:12;61164.19;;;-144.06;47.83
11017;BME280;54687;50.800;6.772;2023-03-11T09:23:39;61176.75;;;-144.06;48.02
11017;BME280;54687;50.800;6.772;2023-03-11T09:26:06;61172.56;;;-144.06;47.20
11017;BME280;54687;50.800;6.772;2023-03-11T09:28:32;61180.97;;;-144.06;48.27
11017;BME280;54687;50.800;6.772;2023-03-11T09:30:59;61172.56;;;-144.06;47.53
11017;BME280;54687;50.800;6.772;2023-03-11T09:33:27;61180.97;;;-144.06;45.83
11017;BME280;54687;50.800;6.772;2023-03-11T09:35:54;61139.03;;;-144.06;45.88
11017;BME280;54687;50.800;6.772;2023-03-11T09:38:20;61199.81;;;-144.06;45.69
11017;BME280;54687;50.800;6.772;2023-03-11T09:40:58;61172.56;;;-144.06;45.95
11017;BME280;54687;50.800;6.772;2023-03-11T09:43:36;61176.75;;;-144.06;44.83
11017;BME280;54687;50.800;6.772;2023-03-11T09:46:15;61132.75;;;-144.06;44.35
11017;BME280;54687;50.800;6.772;2023-03-11T09:48:51;61172.56;;;-144.06;44.19
11017;BME280;54687;50.800;6.772;2023-03-11T09:51:26;61185.16;;;-144.06;43.61
11017;BME280;54687;50.800;6.772;2023-03-11T09:53:55;61122.25;;;-144.06;43.45
11017;BME280;54687;50.800;6.772;2023-03-11T09:56:25;61187.25;;;-144.06;42.76
11017;BME280;54687;50.800;6.772;2023-03-11T09:58:54;61128.53;;;-144.06;41.33
11017;BME280;54687;50.800;6.772;2023-03-11T10:01:24;61151.59;;;-144.06;40.59
11017;BME280;54687;50.800;6.772;2023-03-11T10:03:55;61151.59;;;-144.06;39.28
11017;BME280;54687;50.800;6.772;2023-03-11T10:06:25;61178.84;;;-144.06;37.77
11017;BME280;54687;50.800;6.772;2023-03-11T10:08:59;61162.09;;;-144.06;37.63
11017;BME280;54687;50.800;6.772;2023-03-11T10:11:40;61120.16;;;-144.06;38.61
11017;BME280;54687;50.800;6.772;2023-03-11T10:14:18;61113.88;;;-144.06;37.84
11017;BME280;54687;50.800;6.772;2023-03-11T10:16:56;61130.66;;;-144.06;37.85
11017;BME280;54687;50.800;6.772;2023-03-11T10:19:35;61126.44;;;-144.06;37.82
11017;BME280;54687;50.800;6.772;2023-03-11T10:22:11;61155.81;;;-144.06;38.12
11017;BME280;54687;50.800;6.772;2023-03-11T10:24:51;61126.44;;;-144.06;38.21
11017;BME280;54687;50.800;6.772;2023-03-11T10:27:27;61132.75;;;-144.06;37.31
11017;BME280;54687;50.800;6.772;2023-03-11T10:29:59;61120.16;;;-144.06;37.50
11017;BME280;54687;50.800;6.772;2023-03-11T10:32:34;61109.69;;;-144.06;37.18
11017;BME280;54687;50.800;6.772;2023-03-11T10:35:14;61122.25;;;-144.06;37.45
11017;BME280;54687;50.800;6.772;2023-03-11T10:37:43;61155.81;;;-144.06;38.29
11017;BME280;54687;50.800;6.772;2023-03-11T10:40:19;61147.41;;;-144.06;37.13
11017;BME280;54687;50.800;6.772;2023-03-11T10:42:47;61113.88;;;-144.06;37.70
11017;BME280;54687;50.800;6.772;2023-03-11T10:45:15;61134.84;;;-144.06;36.86
11017;BME280;54687;50.800;6.772;2023-03-11T10:47:42;61088.72;;;-144.06;35.57
11017;BME280;54687;50.800;6.772;2023-03-11T10:50:14;61109.69;;;-144.06;35.61
11017;BME280;54687;50.800;6.772;2023-03-11T10:53:02;61151.59;;;-144.06;35.02
11017;BME280;54687;50.800;6.772;2023-03-11T10:55:29;61076.13;;;-144.06;36.38
11017;BME280;54687;50.800;6.772;2023-03-11T10:58:04;61128.53;;;-144.06;35.42
11017;BME280;54687;50.800;6.772;2023-03-11T11:00:31;61113.88;;;-144.06;35.58
11017;BME280;54687;50.800;6.772;2023-03-11T11:02:59;61105.50;;;-144.06;35.85
11017;BME280;54687;50.800;6.772;2023-03-11T11:05:29;61097.09;;;-144.06;35.57
11017;BME280;54687;50.800;6.772;2023-03-11T11:08:05;61074.03;;;-144.06;35.48
11017;BME280;54687;50.800;6.772;2023-03-11T11:10:33;61122.25;;;-144.06;35.96
11017;BME280;54687;50.800;6.772;2023-03-11T11:13:01;61109.69;;;-144.06;35.30
11017;BME280;54687;50.800;6.772;2023-03-11T11:15:30;61147.41;;;-144.06;35.45
11017;BME280;54687;50.800;6.772;2023-03-11T11:17:59;61080.34;;;-144.06;34.94
11017;BME280;54687;50.800;6.772;2023-03-11T11:20:29;61122.25;;;-144.06;34.98
11017;BME280;54687;50.800;6.772;2023-03-11T11:22:58;61105.50;;;-144.06;34.33
11017;BME280;54687;50.800;6.772;2023-03-11T11:25:28;61095.00;;;-144.06;34.53
11017;BME280;54687;50.800;6.772;2023-03-11T11:27:57;61109.69;;;-144.06;35.08
11017;BME280;54687;50.800;6.772;2023-03-11T11:30:25;61118.06;;;-144.06;34.96
11017;BME280;54687;50.800;6.772;2023-03-11T11:32:51;61074.03;;;-144.06;35.64
11017;BME280;54687;50.800;6.772;2023-03-11T11:35:21;61076.13;;;-144.06;35.49
11017;BME280;54687;50.800;6.772;2023-03-11T11:37:51;61109.69;;;-144.06;35.04
11017;BME280;54687;50.800;6.772;2023-03-11T11:40:25;61122.25;;;-144.06;35.19
11017;BME280;54687;50.800;6.772;2023-03-11T11:42:55;61139.03;;;-144.06;34.83
11017;BME280;54687;50.800;6.772;2023-03-11T11:45:28;61092.91;;;-144.06;35.45
11017;BME280;54687;50.800;6.772;2023-03-11T11:47:59;61090.81;;;-144.06;35.28
11017;BME280;54687;50.800;6.772;2023-03-11T11:50:32;61113.88;;;-144.06;34.99
11017;BME280;54687;50.800;6.772;2023-03-11T11:53:08;61103.38;;;-144.06;34.93
11017;BME280;54687;50.800;6.772;2023-03-11T11:55:39;61126.44;;;-144.06;34.99
11017;BME280;54687;50.800;6.772;2023-03-11T11:58:08;61067.75;;;-144.06;34.65
11017;BME280;54687;50.800;6.772;2023-03-11T12:00:43;61071.94;;;-144.06;34.91
11017;BME280;54687;50.800;6.772;2023-03-11T12:03:39;61097.09;;;-144.06;34.24
11017;BME280;54687;50.800;6.772;2023-03-11T12:06:17;61065.66;;;-144.06;34.73
11017;BME280;54687;50.800;6.772;2023-03-11T12:08:54;61105.50;;;-144.06;34.89
11017;BME280;54687;50.800;6.772;2023-03-11T12:11:28;61080.34;;;-144.06;35.08
11017;BME280;54687;50.800;6.772;2023-03-11T12:14:03;61113.88;;;-144.06;34.22
11017;BME280;54687;50.800;6.772;2023-03-11T12:16:40;61080.34;;;-144.06;34.12
11017;BME280;54687;50.800;6.772;2023-03-11T12:19:19;61086.63;;;-144.06;34.71
11017;BME280;54687;50.800;6.772;2023-03-11T12:22:09;61126.44;;;-144.06;34.09
11017;BME280;54687;50.800;6.772;2023-03-11T12:24:54;61122.25;;;-144.06;34.96
11017;BME280;54687;50.800;6.772;2023-03-11T12:27:30;61076.13;;;-144.06;35.12
11017;BME280;54687;50.800;6.772;2023-03-11T12:30:00;61071.94;;;-144.06;33.52
11017;BME280;54687;50.800;6.772;2023-03-11T12:32:33;61105.50;;;-144.06;33.64
11017;BME280;54687;50.800;6.772;2023-03-11T12:35:02;61105.50;;;-144.06;32.62
11017;BME280;54687;50.800;6.772;2023-03-11T12:37:35;61097.09;;;-144.06;32.83
11017;BME280;54687;50.800;6.772;2023-03-11T12:47:00;61097.09;;;-144.06;33.65
11017;BME280;54687;50.800;6.772;2023-03-11T12:49:29;61048.88;;;-144.06;33.59
11017;BME280;54687;50.800;6.772;2023-03-11T12:52:01;61107.59;;;-144.06;33.04
11017;BME280;54687;50.800;6.772;2023-03-11T12:54:30;61063.56;;;-144.06;33.88
11017;BME280;54687;50.800;6.772;2023-03-11T12:56:58;61105.50;;;-144.06;33.71
11017;BME280;54687;50.800;6.772;2023-03-11T13:00:00;61071.94;;;-144.06;33.08